Map

Track Data

SID SEASON NUMBER BASIN SUBBASIN NAME ISO_TIME NATURE LAT LON WMO_WIND WMO_PRES WMO_AGENCY TRACK_TYPE DIST2LAND LANDFALL IFLAG USA_AGENCY USA_ATCF_ID USA_LAT USA_LON USA_RECORD USA_STATUS USA_WIND USA_PRES USA_SSHS USA_R34_NE USA_R34_SE USA_R34_SW USA_R34_NW USA_R50_NE USA_R50_SE USA_R50_SW USA_R50_NW USA_R64_NE USA_R64_SE USA_R64_SW USA_R64_NW USA_POCI USA_ROCI USA_RMW USA_EYE TOKYO_LAT TOKYO_LON TOKYO_GRADE TOKYO_WIND TOKYO_PRES TOKYO_R50_DIR TOKYO_R50_LONG TOKYO_R50_SHORT TOKYO_R30_DIR TOKYO_R30_LONG TOKYO_R30_SHORT TOKYO_LAND CMA_LAT CMA_LON CMA_CAT CMA_WIND CMA_PRES HKO_LAT HKO_LON HKO_CAT HKO_WIND HKO_PRES NEWDELHI_LAT NEWDELHI_LON NEWDELHI_GRADE NEWDELHI_WIND NEWDELHI_PRES NEWDELHI_CI NEWDELHI_DP NEWDELHI_POCI REUNION_LAT REUNION_LON REUNION_TYPE REUNION_WIND REUNION_PRES REUNION_TNUM REUNION_CI REUNION_RMW REUNION_R34_NE REUNION_R34_SE REUNION_R34_SW REUNION_R34_NW REUNION_R50_NE REUNION_R50_SE REUNION_R50_SW REUNION_R50_NW REUNION_R64_NE REUNION_R64_SE REUNION_R64_SW REUNION_R64_NW BOM_LAT BOM_LON BOM_TYPE BOM_WIND BOM_PRES BOM_TNUM BOM_CI BOM_RMW BOM_R34_NE BOM_R34_SE BOM_R34_SW BOM_R34_NW BOM_R50_NE BOM_R50_SE BOM_R50_SW BOM_R50_NW BOM_R64_NE BOM_R64_SE BOM_R64_SW BOM_R64_NW BOM_ROCI BOM_POCI BOM_EYE BOM_POS_METHOD BOM_PRES_METHOD NADI_LAT NADI_LON NADI_CAT NADI_WIND NADI_PRES WELLINGTON_LAT WELLINGTON_LON WELLINGTON_WIND WELLINGTON_PRES DS824_LAT DS824_LON DS824_STAGE DS824_WIND DS824_PRES TD9636_LAT TD9636_LON TD9636_STAGE TD9636_WIND TD9636_PRES TD9635_LAT TD9635_LON TD9635_WIND TD9635_PRES TD9635_ROCI NEUMANN_LAT NEUMANN_LON NEUMANN_CLASS NEUMANN_WIND NEUMANN_PRES MLC_LAT MLC_LON MLC_CLASS MLC_WIND MLC_PRES USA_GUST BOM_GUST BOM_GUST_PER REUNION_GUST REUNION_GUST_PER USA_SEAHGT USA_SEARAD_NE USA_SEARAD_SE USA_SEARAD_SW USA_SEARAD_NW STORM_SPEED STORM_DIR
1863011S11055 1863 1 SI MM NOT_NAMED 1863-01-11 06:00:00 NR -10.5000 55.1000 reunion main 631 617 _____O________ -1 -10.5000 55.1000 99 9.90000 2 213
1863011S11055 1863 1 SI MM NOT_NAMED 1863-01-11 09:00:00 NR -10.6049 55.0330 main 617 612 _____P________ -1 -10.6049 55.0330 99 3 211
1863011S11055 1863 1 SI MM NOT_NAMED 1863-01-11 12:00:00 NR -10.7141 54.9652 main 612 597 _____P________ -1 -10.7141 54.9652 99 3 211
1863011S11055 1863 1 SI MM NOT_NAMED 1863-01-11 15:00:00 NR -10.8319 54.8959 main 597 578 _____P________ -1 -10.8319 54.8959 99 3 208
1863011S11055 1863 1 SI MM NOT_NAMED 1863-01-11 18:00:00 NR -10.9625 54.8243 main 578 574 _____P________ -1 -10.9625 54.8243 99 3 208
1863011S11055 1863 1 SI MM NOT_NAMED 1863-01-11 21:00:00 NR -11.1103 54.7497 main 563 555 _____P________ -1 -11.1103 54.7497 99 4 205
1863011S11055 1863 1 SI MM NOT_NAMED 1863-01-12 00:00:00 NR -11.2797 54.6713 main 555 537 _____P________ -1 -11.2797 54.6713 99 4 204
1863011S11055 1863 1 SI MM NOT_NAMED 1863-01-12 03:00:00 NR -11.4748 54.5883 main 537 520 _____P________ -1 -11.4748 54.5883 99 5 202
1863011S11055 1863 1 SI MM NOT_NAMED 1863-01-12 06:00:00 NR -11.7000 54.5000 reunion main 520 504 _____O________ -1 -11.7000 54.5000 99 9.90000 5 200
1863011S11055 1863 1 SI MM NOT_NAMED 1863-01-12 09:00:00 NR -11.9579 54.4063 main 501 485 _____P________ -1 -11.9579 54.4063 99 6 199
1863011S11055 1863 1 SI MM NOT_NAMED 1863-01-12 12:00:00 NR -12.2438 54.3102 main 485 466 _____P________ -1 -12.2438 54.3102 99 6 197
1863011S11055 1863 1 SI MM NOT_NAMED 1863-01-12 15:00:00 NR -12.5517 54.2156 main 463 444 _____P________ -1 -12.5517 54.2156 99 7 196
1863011S11055 1863 1 SI MM NOT_NAMED 1863-01-12 18:00:00 NR -12.8752 54.1263 main 444 437 _____P________ -1 -12.8752 54.1263 99 7 194
1863011S11055 1863 1 SI MM NOT_NAMED 1863-01-12 21:00:00 NR -13.2080 54.0461 main 427 422 _____P________ -1 -13.2080 54.0461 99 7 192
1863011S11055 1863 1 SI MM NOT_NAMED 1863-01-13 00:00:00 NR -13.5439 53.9791 main 422 393 _____P________ -1 -13.5439 53.9791 99 7 190
1863011S11055 1863 1 SI MM NOT_NAMED 1863-01-13 03:00:00 NR -13.8766 53.9290 main 393 382 _____P________ -1 -13.8766 53.9290 99 7 187
1863011S11055 1863 1 SI MM NOT_NAMED 1863-01-13 06:00:00 NR -14.2000 53.9000 reunion main 382 373 _____O________ -1 -14.2000 53.9000 99 9.90000 6 184
1863011S11055 1863 1 SI MM NOT_NAMED 1863-01-13 09:00:00 NR -14.4793 53.8882 main 373 369 _____P________ -1 -14.4793 53.8882 99 6 180
1863011S11055 1863 1 SI MM NOT_NAMED 1863-01-13 12:00:00 NR -14.7511 53.8957 main 368 365 _____P________ -1 -14.7511 53.8957 99 5 175
1863011S11055 1863 1 SI MM NOT_NAMED 1863-01-13 15:00:00 NR -15.0185 53.9218 main 365 364 _____P________ -1 -15.0185 53.9218 99 5 173
1863011S11055 1863 1 SI MM NOT_NAMED 1863-01-13 18:00:00 NR -15.2847 53.9655 main 375 375 _____P________ -1 -15.2847 53.9655 99 5 170
1863011S11055 1863 1 SI MM NOT_NAMED 1863-01-13 21:00:00 NR -15.5529 54.0260 main 375 375 _____P________ -1 -15.5529 54.0260 99 6 166
1863011S11055 1863 1 SI MM NOT_NAMED 1863-01-14 00:00:00 NR -15.8260 54.1025 main 388 388 _____P________ -1 -15.8260 54.1025 99 6 164
1863011S11055 1863 1 SI MM NOT_NAMED 1863-01-14 03:00:00 NR -16.1074 54.1941 main 403 403 _____P________ -1 -16.1074 54.1941 99 6 162
1863011S11055 1863 1 SI MM NOT_NAMED 1863-01-14 06:00:00 NR -16.4000 54.3000 reunion main 421 421 _____O________ -1 -16.4000 54.3000 99 9.90000 6 164
1863011S11055 1863 1 SI MM NOT_NAMED 1863-01-14 09:00:00 NR -16.7118 54.3719 main 441 441 _____P________ -1 -16.7118 54.3719 99 7 167
1863011S11055 1863 1 SI MM NOT_NAMED 1863-01-14 12:00:00 NR -17.0338 54.4556 main 455 422 _____P________ -1 -17.0338 54.4556 99 7 165
1863011S11055 1863 1 SI MM NOT_NAMED 1863-01-14 15:00:00 NR -17.3647 54.5562 main 409 374 _____P________ -1 -17.3647 54.5562 99 7 162
1863011S11055 1863 1 SI MM NOT_NAMED 1863-01-14 18:00:00 NR -17.7029 54.6792 main 374 339 _____P________ -1 -17.7029 54.6792 99 7 159
1863011S11055 1863 1 SI MM NOT_NAMED 1863-01-14 21:00:00 NR -18.0470 54.8296 main 339 292 _____P________ -1 -18.0470 54.8296 99 8 155
1863011S11055 1863 1 SI MM NOT_NAMED 1863-01-15 00:00:00 NR -18.3956 55.0130 main 292 257 _____P________ -1 -18.3956 55.0130 99 8 151
1863011S11055 1863 1 SI MM NOT_NAMED 1863-01-15 03:00:00 NR -18.7471 55.2346 main 257 212 _____P________ -1 -18.7471 55.2346 99 8 147
1863011S11055 1863 1 SI MM NOT_NAMED 1863-01-15 06:00:00 NR -19.1000 55.5000 reunion main 212 168 _____O________ -1 -19.1000 55.5000 99 9.90000 9 142
1863011S11055 1863 1 SI MM NOT_NAMED 1863-01-15 09:00:00 NR -19.4829 55.8353 main 168 132 _____P________ -1 -19.4829 55.8353 99 10 139
1863011S11055 1863 1 SI MM NOT_NAMED 1863-01-15 12:00:00 NR -19.8723 56.2192 main 132 80 _____P________ -1 -19.8723 56.2192 99 11 136
1863011S11055 1863 1 SI MM NOT_NAMED 1863-01-15 15:00:00 NR -20.2602 56.6404 main 76 23 _____P________ -1 -20.2602 56.6404 99 11 133
1863011S11055 1863 1 SI MM NOT_NAMED 1863-01-15 18:00:00 NR -20.6386 57.0876 main 23 23 _____P________ -1 -20.6386 57.0876 99 11 131
1863011S11055 1863 1 SI MM NOT_NAMED 1863-01-15 21:00:00 NR -20.9994 57.5491 main 55 55 _____P________ -1 -20.9994 57.5491 99 11 129
1863011S11055 1863 1 SI MM NOT_NAMED 1863-01-16 00:00:00 NR -21.3350 58.0131 main 94 94 _____P________ -1 -21.3350 58.0131 99 11 127
1863011S11055 1863 1 SI MM NOT_NAMED 1863-01-16 03:00:00 NR -21.6377 58.4675 main 148 148 _____P________ -1 -21.6377 58.4675 99 10 124
1863011S11055 1863 1 SI MM NOT_NAMED 1863-01-16 06:00:00 NR -21.9000 58.9000 reunion main 199 199 _____O________ -1 -21.9000 58.9000 99 9.90000 9 122
1863011S11055 1863 1 SI MM NOT_NAMED 1863-01-16 09:00:00 NR -22.1137 59.2966 main 243 243 _____P________ -1 -22.1137 59.2966 99 8 118
1863011S11055 1863 1 SI MM NOT_NAMED 1863-01-16 12:00:00 NR -22.2892 59.6796 main 288 288 _____P________ -1 -22.2892 59.6796 99 8 115
1863011S11055 1863 1 SI MM NOT_NAMED 1863-01-16 15:00:00 NR -22.4313 60.0456 main 319 319 _____P________ -1 -22.4313 60.0456 99 7 111
1863011S11055 1863 1 SI MM NOT_NAMED 1863-01-16 18:00:00 NR -22.5444 60.3910 main 357 357 _____P________ -1 -22.5444 60.3910 99 6 108
1863011S11055 1863 1 SI MM NOT_NAMED 1863-01-16 21:00:00 NR -22.6332 60.7125 main 389 389 _____P________ -1 -22.6332 60.7125 99 6 106
1863011S11055 1863 1 SI MM NOT_NAMED 1863-01-17 00:00:00 NR -22.7023 61.0067 main 420 420 _____P________ -1 -22.7023 61.0067 99 5 103
1863011S11055 1863 1 SI MM NOT_NAMED 1863-01-17 03:00:00 NR -22.7563 61.2703 main 452 452 _____P________ -1 -22.7563 61.2703 99 5 102
1863011S11055 1863 1 SI MM NOT_NAMED 1863-01-17 06:00:00 NR -22.8000 61.5000 reunion main 469 469 _____O________ -1 -22.8000 61.5000 99 9.90000 4 102
1863011S11055 1863 1 SI MM NOT_NAMED 1863-01-17 09:00:00 NR -22.8372 61.6939 main 486 486 _____P________ -1 -22.8372 61.6939 99 3 102
1863011S11055 1863 1 SI MM NOT_NAMED 1863-01-17 12:00:00 NR -22.8695 61.8553 main 510 510 _____P________ -1 -22.8695 61.8553 99 3 103
1863011S11055 1863 1 SI MM NOT_NAMED 1863-01-17 15:00:00 NR -22.8976 61.9887 main 518 518 _____P________ -1 -22.8976 61.9887 99 2 103
1863011S11055 1863 1 SI MM NOT_NAMED 1863-01-17 18:00:00 NR -22.9222 62.0989 main 527 527 _____P________ -1 -22.9222 62.0989 99 2 104
1863011S11055 1863 1 SI MM NOT_NAMED 1863-01-17 21:00:00 NR -22.9440 62.1905 main 536 536 _____P________ -1 -22.9440 62.1905 99 2 105
1863011S11055 1863 1 SI MM NOT_NAMED 1863-01-18 00:00:00 NR -22.9638 62.2681 main 551 551 _____P________ -1 -22.9638 62.2681 99 1 106
1863011S11055 1863 1 SI MM NOT_NAMED 1863-01-18 03:00:00 NR -22.9823 62.3364 main 551 551 _____P________ -1 -22.9823 62.3364 99 1 107
1863011S11055 1863 1 SI MM NOT_NAMED 1863-01-18 06:00:00 NR -23.0000 62.4000 reunion main 559 _____O________ -1 -23.0000 62.4000 99 9.90000 1 108

About IBTrACS Database

This database is a web-friendly format of International Best Track Archive for Climate Stewardship (IBTrACS), a global best track data archive curated by NOAA dating back to 1842.

Updated: 2021-11-26